Time;durP1;ratioP1;P1;durP2;ratioP2;P2;SDS_P1;SDS_P2;PMS_P1;PMS_P2;Temp;Humidity;BMP_temperature;BMP_pressure;BME280_temperature;BME280_humidity;BME280_pressure;Samples;Min_cycle;Max_cycle;Signal;HPM_P1;HPM_P2
2021/01/03 00:00:12;;;;;;;41.38;19.15;;;8.90;78.60;;;;;;5093698;28;20040;-61
2021/01/03 00:02:38;;;;;;;43.38;18.50;;;8.90;78.40;;;;;;5093255;28;20097;-61
2021/01/03 00:05:05;;;;;;;41.00;18.20;;;8.90;78.40;;;;;;5092781;28;20420;-61
2021/01/03 00:07:30;;;;;;;46.10;18.73;;;8.90;78.40;;;;;;5093261;28;20143;-61
2021/01/03 00:09:56;;;;;;;38.13;18.05;;;8.90;78.50;;;;;;5093181;28;20057;-61
2021/01/03 00:12:25;;;;;;;40.70;18.75;;;8.90;78.40;;;;;;5092864;28;20032;-61
2021/01/03 00:14:51;;;;;;;46.00;19.52;;;8.90;78.40;;;;;;5093309;28;20111;-61
2021/01/03 00:17:16;;;;;;;48.38;20.98;;;8.90;78.40;;;;;;5093183;28;20136;-61
2021/01/03 00:19:42;;;;;;;37.75;17.90;;;8.90;78.40;;;;;;5092421;28;20023;-61
2021/01/03 00:22:08;;;;;;;43.45;18.42;;;8.80;78.30;;;;;;5093067;28;20055;-60
2021/01/03 00:24:33;;;;;;;45.35;19.27;;;8.90;78.50;;;;;;5092177;28;20016;-61
2021/01/03 00:26:59;;;;;;;45.38;19.48;;;8.90;78.40;;;;;;5092969;28;20082;-61
2021/01/03 00:29:24;;;;;;;35.10;16.48;;;8.90;79.00;;;;;;5093226;28;20028;-61
2021/01/03 00:31:51;;;;;;;41.53;18.17;;;8.90;78.40;;;;;;5092213;28;20053;-61
2021/01/03 00:34:18;;;;;;;41.90;17.98;;;8.90;78.40;;;;;;5092959;28;20028;-61
2021/01/03 00:36:44;;;;;;;47.88;17.95;;;8.90;78.40;;;;;;5092748;28;20491;-61
2021/01/03 00:39:10;;;;;;;48.30;20.10;;;8.90;78.40;;;;;;5092243;28;20028;-61
2021/01/03 00:41:36;;;;;;;43.53;19.00;;;8.90;78.40;;;;;;5092842;28;20050;-61
2021/01/03 00:44:03;;;;;;;52.00;21.52;;;8.90;78.40;;;;;;5093052;28;20024;-61
2021/01/03 00:46:29;;;;;;;44.33;17.80;;;8.90;78.40;;;;;;5092116;28;20076;-61
2021/01/03 00:48:54;;;;;;;47.85;19.65;;;8.90;78.40;;;;;;5092468;28;20111;-61
2021/01/03 00:51:20;;;;;;;42.85;17.70;;;8.90;78.40;;;;;;5092753;28;20036;-61
2021/01/03 00:53:46;;;;;;;56.30;20.17;;;8.90;78.40;;;;;;5091816;28;20059;-61
2021/01/03 00:56:11;;;;;;;50.97;19.75;;;8.90;78.40;;;;;;5092498;28;20056;-61
2021/01/03 00:58:37;;;;;;;46.50;20.02;;;8.90;78.30;;;;;;5092487;28;20078;-61
2021/01/03 01:01:04;;;;;;;45.00;21.00;;;8.90;78.30;;;;;;5091570;28;20039;-61
2021/01/03 01:03:30;;;;;;;39.95;20.13;;;9.00;78.40;;;;;;5092794;28;20024;-61
2021/01/03 01:05:56;;;;;;;44.20;20.23;;;9.00;78.30;;;;;;5092478;28;20495;-60
2021/01/03 01:08:23;;;;;;;43.97;18.65;;;8.90;78.20;;;;;;5091815;28;20387;-61
2021/01/03 01:10:49;;;;;;;48.78;19.70;;;8.90;78.20;;;;;;5095157;28;20036;-61
2021/01/03 01:13:15;;;;;;;43.10;19.23;;;8.90;78.30;;;;;;5096796;28;20038;-61
2021/01/03 01:15:41;;;;;;;40.50;17.88;;;9.00;78.40;;;;;;5096091;28;20028;-60
2021/01/03 01:18:06;;;;;;;42.90;19.27;;;9.00;78.30;;;;;;5096439;28;20035;-61
2021/01/03 01:20:34;;;;;;;47.15;21.17;;;8.90;78.20;;;;;;5096472;28;20127;-61
2021/01/03 01:22:59;;;;;;;43.15;18.95;;;9.00;78.20;;;;;;5095576;28;20417;-61
2021/01/03 01:25:28;;;;;;;49.28;19.73;;;9.00;78.10;;;;;;5096416;28;20085;-61
2021/01/03 01:27:55;;;;;;;46.97;19.65;;;9.00;78.10;;;;;;5095713;28;20047;-61
2021/01/03 01:30:22;;;;;;;40.25;18.80;;;8.90;78.00;;;;;;5096395;28;20020;-61
2021/01/03 01:32:48;;;;;;;41.92;18.23;;;9.00;78.10;;;;;;5096358;28;20038;-60
2021/01/03 01:35:17;;;;;;;43.05;18.45;;;9.00;78.20;;;;;;5095430;28;20035;-61
2021/01/03 01:37:43;;;;;;;40.65;18.38;;;9.00;78.10;;;;;;5096103;28;20032;-60
2021/01/03 01:40:11;;;;;;;41.85;19.00;;;9.00;78.10;;;;;;5096093;28;20038;-61
2021/01/03 01:42:37;;;;;;;46.22;19.48;;;9.00;78.00;;;;;;5095485;28;20106;-61
2021/01/03 01:45:17;;;;;;;38.53;17.10;;;9.00;78.00;;;;;;5095769;28;20036;-61
2021/01/03 01:47:46;;;;;;;36.85;16.73;;;8.90;78.00;;;;;;5095960;28;20024;-61
2021/01/03 01:50:21;;;;;;;36.67;16.75;;;9.00;78.00;;;;;;5095192;28;20034;-61
2021/01/03 01:52:52;;;;;;;50.78;19.95;;;8.90;77.90;;;;;;5082243;28;20115;-60
2021/01/03 01:55:26;;;;;;;46.85;20.30;;;8.90;77.80;;;;;;5096061;28;20107;-61
2021/01/03 01:58:03;;;;;;;46.45;18.63;;;9.00;77.90;;;;;;5094896;28;20048;-61
2021/01/03 02:00:31;;;;;;;45.70;19.63;;;8.90;77.90;;;;;;5095595;28;20051;-61
2021/01/03 02:03:04;;;;;;;47.85;17.55;;;8.90;77.80;;;;;;5095987;28;20024;-61
2021/01/03 02:05:39;;;;;;;40.85;19.02;;;8.90;77.80;;;;;;5095820;28;20028;-61
2021/01/03 02:08:37;;;;;;;41.38;16.35;;;8.90;77.80;;;;;;5095852;28;20115;-61
2021/01/03 02:11:06;;;;;;;44.03;17.95;;;8.90;77.80;;;;;;5095084;28;20035;-60
2021/01/03 02:13:42;;;;;;;50.17;19.73;;;8.90;77.80;;;;;;5095724;28;20027;-61
2021/01/03 02:16:15;;;;;;;45.03;19.25;;;8.90;77.80;;;;;;5095399;28;20032;-61
2021/01/03 02:18:43;;;;;;;39.38;17.35;;;8.90;77.80;;;;;;5094641;28;20039;-61
2021/01/03 02:21:18;;;;;;;42.15;16.10;;;8.80;77.80;;;;;;5094151;28;20047;-61
2021/01/03 02:24:07;;;;;;;39.05;16.10;;;8.90;77.90;;;;;;5092551;28;20464;-61
2021/01/03 02:26:46;;;;;;;42.90;18.25;;;8.90;77.90;;;;;;5083418;28;20036;-61
2021/01/03 02:29:15;;;;;;;42.35;17.65;;;8.90;77.90;;;;;;5091566;28;20024;-60
2021/01/03 02:31:45;;;;;;;38.88;17.35;;;8.90;77.90;;;;;;5080738;28;20408;-61
2021/01/03 02:34:16;;;;;;;43.72;18.60;;;8.90;77.90;;;;;;5088189;28;20111;-61
2021/01/03 02:36:48;;;;;;;44.22;20.00;;;8.90;77.80;;;;;;5080917;28;20028;-61
2021/01/03 02:39:38;;;;;;;41.72;17.05;;;8.90;77.80;;;;;;5094563;28;20387;-61
2021/01/03 02:42:21;;;;;;;39.33;17.40;;;8.90;77.90;;;;;;5082241;28;20399;-61
2021/01/03 02:44:47;;;;;;;41.75;18.17;;;8.80;77.80;;;;;;5078838;28;20051;-61
2021/01/03 02:47:13;;;;;;;38.45;15.52;;;8.80;77.70;;;;;;5073893;28;20466;-61
2021/01/03 02:49:39;;;;;;;50.92;18.08;;;8.80;77.80;;;;;;5088871;28;20032;-61
2021/01/03 02:52:13;;;;;;;46.45;18.85;;;8.80;77.80;;;;;;5094965;28;20025;-61
2021/01/03 02:54:38;;;;;;;;;;;8.80;77.80;;;;;;5094851;28;20024;-60
2021/01/03 02:57:04;;;;;;;41.75;15.23;;;8.80;77.90;;;;;;5094692;28;20351;-61
2021/01/03 02:59:30;;;;;;;41.80;16.67;;;8.80;77.70;;;;;;5093686;28;20440;-61
2021/01/03 03:01:55;;;;;;;43.08;18.02;;;8.80;78.40;;;;;;5077631;28;20048;-61
2021/01/03 03:04:21;;;;;;;40.47;17.10;;;8.70;77.90;;;;;;5074251;28;20361;-61
2021/01/03 03:06:47;;;;;;;39.25;15.88;;;8.70;77.90;;;;;;5088039;28;20039;-61
2021/01/03 03:09:13;;;;;;;40.30;16.35;;;8.70;78.00;;;;;;5094515;28;20027;-60
2021/01/03 03:11:38;;;;;;;45.88;19.15;;;8.70;78.00;;;;;;5094584;28;20082;-61
2021/01/03 03:14:04;;;;;;;44.10;18.42;;;8.70;78.00;;;;;;5093646;28;20369;-61
2021/01/03 03:16:30;;;;;;;47.42;17.73;;;8.70;78.00;;;;;;5094457;28;20028;-61
2021/01/03 03:18:55;;;;;;;47.95;16.75;;;8.70;77.90;;;;;;5094136;28;20096;-61
2021/01/03 03:21:21;;;;;;;54.70;21.40;;;8.70;77.90;;;;;;5092193;28;20200;-61
2021/01/03 03:23:47;;;;;;;44.83;16.98;;;8.70;78.00;;;;;;5093896;28;20032;-60
2021/01/03 03:26:13;;;;;;;48.38;18.65;;;8.70;78.00;;;;;;5094336;28;20039;-61
2021/01/03 03:28:39;;;;;;;45.60;18.52;;;8.70;77.90;;;;;;5093136;28;20479;-60
2021/01/03 03:31:05;;;;;;;44.50;17.77;;;8.70;77.90;;;;;;5093851;28;20032;-60
2021/01/03 03:33:31;;;;;;;45.63;18.63;;;8.70;77.80;;;;;;5093537;28;20020;-60
2021/01/03 03:35:56;;;;;;;49.53;19.23;;;8.70;77.80;;;;;;5078872;28;20037;-61
2021/01/03 03:38:22;;;;;;;44.53;17.85;;;8.60;77.70;;;;;;5093778;28;20028;-60
2021/01/03 03:40:48;;;;;;;44.33;19.60;;;8.60;77.80;;;;;;5093739;28;20048;-61
2021/01/03 03:43:13;;;;;;;43.80;19.58;;;8.60;77.90;;;;;;5093114;28;20020;-61
2021/01/03 03:45:39;;;;;;;50.45;22.20;;;8.50;77.90;;;;;;5094074;28;20043;-60
2021/01/03 03:48:06;;;;;;;46.13;19.92;;;8.50;78.00;;;;;;5093653;28;20027;-61
2021/01/03 03:50:32;;;;;;;46.53;19.95;;;8.50;78.00;;;;;;5092978;28;20065;-60
2021/01/03 03:52:57;;;;;;;43.42;17.40;;;8.50;78.00;;;;;;5093459;28;20028;-61
2021/01/03 03:55:23;;;;;;;42.55;18.13;;;8.50;78.10;;;;;;5093885;28;20104;-60
2021/01/03 03:57:49;;;;;;;50.22;20.05;;;8.50;78.20;;;;;;5092601;28;20040;-61
2021/01/03 04:00:18;;;;;;;41.72;17.77;;;8.50;78.30;;;;;;5093352;28;20059;-61
2021/01/03 04:02:44;;;;;;;49.50;18.60;;;8.40;78.30;;;;;;5092798;28;20522;-61
2021/01/03 04:05:23;;;;;;;41.85;18.00;;;8.40;78.40;;;;;;5093233;28;20028;-60
2021/01/03 04:07:49;;;;;;;46.75;18.92;;;8.40;78.60;;;;;;5093661;28;20035;-60
2021/01/03 04:10:16;;;;;;;46.50;19.77;;;8.30;78.50;;;;;;5092553;28;20030;-61
2021/01/03 04:12:42;;;;;;;55.30;20.23;;;8.30;78.60;;;;;;5093504;28;20024;-61
2021/01/03 04:15:14;;;;;;;45.15;18.80;;;8.30;78.70;;;;;;5093124;28;20062;-61
2021/01/03 04:17:39;;;;;;;41.05;15.27;;;8.30;78.80;;;;;;5092595;28;20095;-61
2021/01/03 04:20:08;;;;;;;50.17;19.75;;;8.20;78.80;;;;;;5092947;28;20083;-61
2021/01/03 04:22:33;;;;;;;50.10;19.80;;;8.30;78.90;;;;;;5092895;28;20513;-60
2021/01/03 04:25:00;;;;;;;44.80;19.55;;;8.30;78.90;;;;;;5092652;28;20028;-60
2021/01/03 04:27:26;;;;;;;51.72;20.02;;;8.30;79.00;;;;;;5092831;28;20028;-61
2021/01/03 04:29:52;;;;;;;49.08;19.58;;;8.30;79.00;;;;;;5092950;28;20059;-60
2021/01/03 04:32:18;;;;;;;48.42;21.45;;;8.30;79.00;;;;;;5092195;28;20067;-60
2021/01/03 04:34:44;;;;;;;45.88;20.10;;;8.30;79.00;;;;;;5087221;28;20427;-60
2021/01/03 04:37:10;;;;;;;51.70;20.85;;;8.30;78.90;;;;;;5084767;28;20055;-60
2021/01/03 04:39:36;;;;;;;47.28;19.80;;;8.30;79.00;;;;;;5092162;28;20089;-61
2021/01/03 04:42:06;;;;;;;48.25;21.50;;;8.30;79.00;;;;;;5092806;28;20522;-60
2021/01/03 04:44:40;;;;;;;49.70;19.30;;;8.20;78.90;;;;;;5091978;28;20025;-60
2021/01/03 04:47:30;;;;;;;52.17;21.85;;;8.30;79.10;;;;;;5092081;28;20028;-61
2021/01/03 04:50:25;;;;;;;48.83;21.15;;;8.20;79.00;;;;;;5092794;28;20032;-61
2021/01/03 04:52:53;;;;;;;44.90;19.75;;;8.20;79.00;;;;;;5050692;28;20090;-60
2021/01/03 04:55:25;;;;;;;43.65;19.33;;;8.20;79.10;;;;;;5092614;28;20042;-61
2021/01/03 04:58:07;;;;;;;47.40;17.73;;;8.20;79.30;;;;;;5092742;28;20146;-61
2021/01/03 05:00:41;;;;;;;50.72;20.88;;;8.10;79.40;;;;;;5091981;28;20123;-60
2021/01/03 05:03:40;;;;;;;50.33;20.95;;;8.20;79.50;;;;;;5092461;28;20111;-61
2021/01/03 05:06:13;;;;;;;44.58;20.65;;;8.10;79.70;;;;;;5092184;28;20081;-61
2021/01/03 05:08:48;;;;;;;50.65;23.63;;;8.10;79.70;;;;;;5092699;28;20020;-61
2021/01/03 05:11:17;;;;;;;49.00;19.27;;;8.10;79.80;;;;;;5092689;28;20040;-60
2021/01/03 05:14:04;;;;;;;54.38;21.70;;;8.00;79.80;;;;;;5091800;28;20024;-61
2021/01/03 05:16:29;;;;;;;51.80;20.95;;;8.00;79.90;;;;;;5092482;28;20472;-61
2021/01/03 05:18:55;;;;;;;42.15;19.15;;;8.00;79.90;;;;;;5092525;28;20032;-60
2021/01/03 05:21:21;;;;;;;49.85;21.65;;;8.00;79.90;;;;;;5091621;28;20127;-60
2021/01/03 05:24:16;;;;;;;50.75;23.52;;;8.00;80.00;;;;;;5092363;28;20028;-60
2021/01/03 05:26:43;;;;;;;54.80;22.55;;;8.00;80.10;;;;;;5079454;28;20476;-60
2021/01/03 05:29:11;;;;;;;54.08;23.27;;;8.00;80.00;;;;;;5091781;28;20146;-60
2021/01/03 05:31:38;;;;;;;54.03;23.40;;;8.10;80.10;;;;;;5092468;28;20032;-60
2021/01/03 05:34:09;;;;;;;52.72;24.02;;;8.00;80.10;;;;;;5091387;28;20081;-60
2021/01/03 05:36:45;;;;;;;52.83;21.60;;;8.00;80.20;;;;;;5079173;28;20024;-60
2021/01/03 05:39:31;;;;;;;53.75;23.63;;;8.00;80.20;;;;;;5092148;28;20383;-60
2021/01/03 05:41:59;;;;;;;51.67;22.33;;;8.00;80.30;;;;;;5091661;28;20039;-60
2021/01/03 05:44:29;;;;;;;51.08;22.27;;;8.00;80.30;;;;;;5092195;28;20107;-60
2021/01/03 05:47:15;;;;;;;53.67;23.02;;;8.00;80.50;;;;;;5092396;28;20035;-60
2021/01/03 05:49:41;;;;;;;49.22;21.85;;;7.90;80.50;;;;;;5091242;28;20104;-61
2021/01/03 05:52:28;;;;;;;52.75;22.15;;;7.90;80.50;;;;;;5091023;28;20048;-60
2021/01/03 05:54:55;;;;;;;56.22;22.02;;;7.90;80.80;;;;;;5083913;28;20028;-61
2021/01/03 05:57:30;;;;;;;50.22;21.88;;;7.90;80.60;;;;;;5082198;28;20025;-61
2021/01/03 05:59:56;;;;;;;36.65;13.98;;;7.90;80.70;;;;;;5084762;28;20123;-60
2021/01/03 06:02:28;;;;;;;51.55;21.05;;;7.90;80.70;;;;;;5083784;28;20170;-60
2021/01/03 06:05:07;;;;;;;52.58;23.23;;;7.90;80.80;;;;;;5083596;28;20017;-60
2021/01/03 06:07:33;;;;;;;52.42;20.80;;;7.90;80.90;;;;;;5083741;28;20113;-60
2021/01/03 06:09:59;;;;;;;51.95;24.05;;;7.90;80.90;;;;;;5082444;28;20594;-61
2021/01/03 06:12:30;;;;;;;51.30;22.23;;;7.90;80.80;;;;;;5085383;28;20051;-60
2021/01/03 06:15:01;;;;;;;47.33;21.42;;;7.90;80.90;;;;;;5082026;28;20111;-61
2021/01/03 06:17:33;;;;;;;43.55;20.15;;;7.90;80.90;;;;;;5085109;28;20028;-60
2021/01/03 06:20:13;;;;;;;45.20;18.67;;;7.90;80.90;;;;;;5081323;28;20174;-60
2021/01/03 06:22:47;;;;;;;55.83;21.77;;;7.90;81.00;;;;;;5084953;28;20403;-60
2021/01/03 06:25:51;;;;;;;55.45;24.50;;;7.80;81.00;;;;;;5081662;28;20464;-60
2021/01/03 06:28:23;;;;;;;58.22;20.67;;;7.80;81.00;;;;;;5088733;28;20039;-60
2021/01/03 06:31:03;;;;;;;56.22;22.17;;;7.80;81.00;;;;;;5085599;28;20067;-60
2021/01/03 06:34:06;;;;;;;52.63;23.73;;;7.80;81.10;;;;;;5088276;28;20399;-60
2021/01/03 06:36:46;;;;;;;56.97;21.33;;;7.80;81.20;;;;;;5095032;28;20106;-60
2021/01/03 06:39:38;;;;;;;59.17;24.45;;;7.80;81.10;;;;;;5094243;28;20024;-60
2021/01/03 06:42:26;;;;;;;51.22;22.48;;;7.80;81.10;;;;;;5095041;28;20497;-60
2021/01/03 06:45:38;;;;;;;48.78;21.90;;;7.90;81.10;;;;;;5093544;28;20040;-60
2021/01/03 06:48:51;;;;;;;54.67;22.52;;;7.80;81.20;;;;;;5094858;28;20065;-61
2021/01/03 06:51:53;;;;;;;57.22;22.20;;;7.80;81.10;;;;;;5053416;28;20036;-60
2021/01/03 06:54:37;;;;;;;41.90;17.23;;;7.80;81.10;;;;;;5094705;28;20038;-60
2021/01/03 06:57:42;;;;;;;55.05;20.52;;;7.90;81.00;;;;;;5082234;28;20066;-60
2021/01/03 07:00:13;;;;;;;58.15;23.88;;;7.90;81.00;;;;;;5093940;28;20036;-60
2021/01/03 07:02:49;;;;;;;38.92;17.05;;;7.90;81.00;;;;;;5094710;28;20055;-60
2021/01/03 07:05:15;;;;;;;52.97;22.55;;;7.90;81.10;;;;;;5094709;28;20028;-60
2021/01/03 07:07:56;;;;;;;51.70;21.23;;;7.90;81.10;;;;;;5093165;28;20039;-60
2021/01/03 07:10:32;;;;;;;46.88;18.35;;;7.90;81.00;;;;;;5094593;28;20028;-60
2021/01/03 07:12:58;;;;;;;50.17;22.67;;;7.90;81.00;;;;;;5093747;28;20024;-61
2021/01/03 07:15:26;;;;;;;44.88;20.10;;;7.80;81.00;;;;;;5094040;28;20039;-60
2021/01/03 07:17:55;;;;;;;51.83;17.88;;;7.90;81.10;;;;;;5094346;28;20077;-60
2021/01/03 07:20:29;;;;;;;25.95;11.80;;;7.90;81.00;;;;;;5093305;28;20127;-60
2021/01/03 07:23:19;;;;;;;51.92;20.63;;;7.90;81.00;;;;;;5094326;28;20114;-60
2021/01/03 07:25:54;;;;;;;52.28;20.92;;;7.90;81.00;;;;;;5094159;28;20146;-60
2021/01/03 07:28:27;;;;;;;27.63;13.40;;;7.80;80.80;;;;;;5093546;28;20033;-60
2021/01/03 07:30:58;;;;;;;43.28;19.05;;;7.90;80.90;;;;;;5093926;28;20392;-60
2021/01/03 07:33:45;;;;;;;54.17;19.45;;;7.90;80.90;;;;;;5093946;28;20020;-60
2021/01/03 07:36:36;;;;;;;44.72;19.20;;;7.90;81.00;;;;;;5093999;28;20043;-60
2021/01/03 07:39:05;;;;;;;43.63;18.42;;;7.90;80.90;;;;;;5093973;28;20115;-60
2021/01/03 07:41:30;;;;;;;52.35;19.63;;;7.90;81.00;;;;;;5093000;28;20032;-61
2021/01/03 07:43:58;;;;;;;45.88;17.45;;;7.90;80.90;;;;;;5093741;28;20065;-61
2021/01/03 07:46:51;;;;;;;33.05;11.88;;;7.90;80.90;;;;;;5093542;28;20464;-61
2021/01/03 07:49:24;;;;;;;48.90;17.63;;;7.90;80.90;;;;;;5091814;28;20042;-61
2021/01/03 07:51:49;;;;;;;34.90;13.70;;;7.90;80.70;;;;;;5079910;28;20472;-61
2021/01/03 07:54:15;;;;;;;36.70;15.27;;;7.90;80.70;;;;;;5093678;28;20111;-61
2021/01/03 07:56:41;;;;;;;30.67;12.85;;;7.90;80.70;;;;;;5092665;28;20024;-61
2021/01/03 07:59:06;;;;;;;36.75;14.23;;;8.00;80.70;;;;;;5093316;28;20044;-60
2021/01/03 08:01:37;;;;;;;42.22;18.95;;;8.00;80.70;;;;;;5093248;28;20035;-61
2021/01/03 08:04:10;;;;;;;45.45;18.40;;;7.90;80.50;;;;;;5092774;28;20035;-61
2021/01/03 08:06:36;;;;;;;45.80;18.75;;;8.00;80.50;;;;;;5093354;28;20036;-61
2021/01/03 08:09:03;;;;;;;37.70;13.88;;;8.00;80.30;;;;;;5091268;28;20032;-61
2021/01/03 08:11:38;;;;;;;36.95;15.45;;;8.00;80.20;;;;;;5093177;28;20032;-61
2021/01/03 08:14:10;;;;;;;38.33;13.73;;;8.00;80.20;;;;;;5083602;28;20044;-60
2021/01/03 08:16:38;;;;;;;48.42;17.35;;;8.00;80.30;;;;;;5073681;28;20028;-61
2021/01/03 08:19:06;;;;;;;39.67;16.77;;;8.00;80.20;;;;;;5077378;28;20028;-61
2021/01/03 08:21:40;;;;;;;40.70;17.27;;;8.00;80.10;;;;;;5073228;28;20082;-61
2021/01/03 08:24:09;;;;;;;;;;;8.00;80.10;;;;;;5072272;28;20024;-60
2021/01/03 08:26:43;;;;;;;29.48;12.45;;;8.00;80.10;;;;;;5074531;28;19908;-60
2021/01/03 08:29:22;;;;;;;48.72;19.13;;;8.00;79.80;;;;;;5089958;28;20781;-61
2021/01/03 08:31:54;;;;;;;36.30;15.95;;;8.00;80.00;;;;;;5090759;28;20379;-61
2021/01/03 08:34:42;;;;;;;39.95;16.67;;;8.00;80.00;;;;;;5087050;28;20020;-61
2021/01/03 08:37:20;;;;;;;39.55;17.38;;;8.00;80.00;;;;;;5090827;28;20035;-61
2021/01/03 08:39:47;;;;;;;45.10;17.83;;;8.00;80.60;;;;;;5091117;28;20055;-61
2021/01/03 08:42:39;;;;;;;36.08;16.38;;;8.00;79.90;;;;;;5091080;28;20746;-61
2021/01/03 08:45:07;;;;;;;42.78;16.20;;;8.00;79.90;;;;;;5090684;28;20029;-61
2021/01/03 08:47:37;;;;;;;41.55;17.77;;;8.00;79.80;;;;;;5090314;28;20036;-61
2021/01/03 08:50:17;;;;;;;37.17;14.88;;;8.00;79.80;;;;;;5089444;28;20024;-62
2021/01/03 08:52:52;;;;;;;36.25;15.60;;;7.90;79.80;;;;;;5089556;28;20081;-62
2021/01/03 08:55:19;;;;;;;38.53;17.23;;;8.00;80.00;;;;;;5090631;28;20031;-61
2021/01/03 08:57:57;;;;;;;43.35;16.92;;;8.00;79.90;;;;;;5089866;28;20032;-62
2021/01/03 09:00:26;;;;;;;35.85;15.07;;;7.90;79.90;;;;;;5088849;28;20032;-62
2021/01/03 09:02:58;;;;;;;41.83;17.85;;;7.90;79.90;;;;;;5090155;28;20040;-61
2021/01/03 09:05:28;;;;;;;34.92;15.48;;;7.90;79.90;;;;;;5090149;28;20047;-60
2021/01/03 09:07:54;;;;;;;42.85;17.83;;;7.90;80.00;;;;;;5087324;28;20078;-61
2021/01/03 09:10:28;;;;;;;36.67;17.17;;;7.90;80.10;;;;;;5088205;28;20028;-61
2021/01/03 09:13:21;;;;;;;40.65;17.52;;;7.80;80.10;;;;;;5087440;28;20035;-61
2021/01/03 09:16:13;;;;;;;39.45;18.05;;;7.80;80.10;;;;;;5091380;28;20042;-61
2021/01/03 09:18:50;;;;;;;31.23;14.93;;;7.80;80.10;;;;;;5083330;28;20032;-61
2021/01/03 09:21:16;;;;;;;35.10;14.82;;;7.80;80.10;;;;;;5083973;28;20036;-61
2021/01/03 09:23:42;;;;;;;43.95;18.48;;;7.80;80.20;;;;;;5085710;28;20399;-61
2021/01/03 09:26:09;;;;;;;38.78;16.10;;;7.80;80.20;;;;;;5084832;28;20472;-61
2021/01/03 09:28:40;;;;;;;37.80;17.02;;;7.80;80.20;;;;;;5083546;28;20028;-61
2021/01/03 09:31:27;;;;;;;39.72;17.55;;;7.80;80.20;;;;;;5084942;28;20038;-61
2021/01/03 09:34:07;;;;;;;32.90;13.95;;;7.80;80.20;;;;;;5084304;28;20115;-61
2021/01/03 09:36:55;;;;;;;41.67;16.20;;;7.80;80.20;;;;;;5091399;28;20482;-61
2021/01/03 09:39:37;;;;;;;35.13;14.35;;;7.80;80.50;;;;;;5095658;28;20547;-61
2021/01/03 09:42:23;;;;;;;35.35;15.02;;;7.70;80.30;;;;;;5095116;28;20455;-61
2021/01/03 09:45:17;;;;;;;29.58;14.10;;;7.70;80.30;;;;;;5078984;28;20483;-61
2021/01/03 09:47:46;;;;;;;41.58;15.02;;;7.70;80.40;;;;;;5087667;28;20105;-61
2021/01/03 09:50:30;;;;;;;38.63;16.67;;;7.70;80.30;;;;;;5084260;28;20471;-61
2021/01/03 09:53:08;;;;;;;37.13;15.07;;;7.70;80.50;;;;;;5079185;28;20056;-61
2021/01/03 09:55:39;;;;;;;36.65;15.65;;;7.70;80.40;;;;;;5074724;28;20037;-61
2021/01/03 09:58:07;;;;;;;35.85;15.25;;;7.70;80.50;;;;;;5077187;28;20043;-61
2021/01/03 10:00:52;;;;;;;49.30;16.92;;;7.70;80.50;;;;;;5077619;28;20100;-61
2021/01/03 10:03:27;;;;;;;39.45;15.02;;;7.80;80.70;;;;;;5078292;28;19916;-61
2021/01/03 10:05:53;;;;;;;36.35;14.63;;;7.70;80.80;;;;;;5075573;28;20068;-61
2021/01/03 10:08:27;;;;;;;40.55;15.50;;;7.70;80.90;;;;;;5077862;28;20071;-61
2021/01/03 10:11:00;;;;;;;36.05;14.52;;;7.70;81.20;;;;;;5080636;28;20814;-61
2021/01/03 10:13:28;;;;;;;37.78;15.50;;;7.70;81.30;;;;;;5093311;28;20028;-61
2021/01/03 10:15:54;;;;;;;36.17;14.88;;;7.60;81.20;;;;;;5094094;28;20028;-63
2021/01/03 10:18:39;;;;;;;35.95;14.38;;;7.60;81.20;;;;;;5091482;28;20024;-60
2021/01/03 10:21:37;;;;;;;34.65;14.75;;;7.60;81.40;;;;;;5094979;28;20035;-61
2021/01/03 10:24:11;;;;;;;39.10;14.82;;;7.70;81.50;;;;;;5094221;28;20077;-61
2021/01/03 10:26:37;;;;;;;33.88;14.35;;;7.60;81.40;;;;;;5095740;28;20114;-61
2021/01/03 10:29:04;;;;;;;35.60;13.52;;;7.60;81.50;;;;;;5094909;28;20165;-61
2021/01/03 10:31:48;;;;;;;39.70;13.23;;;7.60;81.60;;;;;;5094048;28;20031;-62
2021/01/03 10:34:17;;;;;;;32.13;12.90;;;7.60;81.90;;;;;;5093730;28;20028;-62
2021/01/03 10:36:43;;;;;;;26.98;10.90;;;7.60;82.10;;;;;;5090440;28;20073;-62
2021/01/03 10:39:10;;;;;;;37.45;12.88;;;7.60;82.20;;;;;;5094266;28;20020;-61
2021/01/03 10:41:37;;;;;;;35.88;10.35;;;7.60;83.10;;;;;;5093639;28;20071;-61
2021/01/03 10:44:04;;;;;;;29.15;13.70;;;7.60;82.90;;;;;;5087473;28;20103;-61
2021/01/03 10:46:30;;;;;;;33.63;13.35;;;7.60;82.90;;;;;;5094361;28;20040;-61
2021/01/03 10:48:56;;;;;;;29.10;11.57;;;7.50;83.20;;;;;;5094336;28;20055;-61
2021/01/03 10:51:34;;;;;;;25.55;11.18;;;7.50;83.10;;;;;;5086829;28;20056;-61
2021/01/03 10:54:00;;;;;;;20.77;8.73;;;7.50;83.20;;;;;;5093534;28;20028;-61
2021/01/03 10:56:26;;;;;;;21.55;9.57;;;7.50;83.30;;;;;;5094795;28;20028;-62
2021/01/03 10:58:52;;;;;;;21.73;8.73;;;7.50;83.40;;;;;;5092627;28;20396;-61
2021/01/03 11:01:18;;;;;;;18.45;7.93;;;7.50;83.40;;;;;;5085782;28;20126;-62
2021/01/03 11:03:43;;;;;;;20.25;6.45;;;7.50;83.60;;;;;;5078856;28;20119;-69
2021/01/03 11:06:09;;;;;;;20.65;8.52;;;7.50;83.60;;;;;;5075528;28;20037;-61
2021/01/03 11:08:36;;;;;;;17.50;8.13;;;7.50;83.60;;;;;;5077258;28;20111;-61
2021/01/03 11:11:01;;;;;;;19.40;8.48;;;7.50;83.70;;;;;;5077345;28;20024;-61
2021/01/03 11:13:27;;;;;;;13.20;6.22;;;7.50;83.70;;;;;;5075693;28;20043;-61
2021/01/03 11:15:53;;;;;;;11.20;5.45;;;7.50;84.10;;;;;;5078159;28;20094;-61
2021/01/03 11:18:19;;;;;;;12.63;5.72;;;7.50;83.90;;;;;;5073940;28;20025;-62
2021/01/03 11:20:44;;;;;;;17.75;7.28;;;7.50;84.00;;;;;;5077237;28;20024;-62
2021/01/03 11:23:10;;;;;;;11.27;5.78;;;7.50;84.10;;;;;;5075958;28;20506;-61
2021/01/03 11:25:35;;;;;;;11.25;6.45;;;7.50;84.10;;;;;;5076961;28;20302;-61
2021/01/03 11:28:01;;;;;;;10.18;6.13;;;7.50;83.80;;;;;;5076291;28;20052;-61
2021/01/03 11:30:27;;;;;;;8.57;4.53;;;7.50;83.70;;;;;;5076241;28;20039;-60
2021/01/03 11:32:53;;;;;;;8.38;4.63;;;7.50;82.80;;;;;;5080280;28;20089;-62
2021/01/03 11:35:18;;;;;;;9.68;3.55;;;7.40;83.70;;;;;;5093946;28;20082;-61
2021/01/03 11:37:47;;;;;;;4.57;2.53;;;7.50;83.90;;;;;;5080246;28;20599;-61
2021/01/03 11:40:13;;;;;;;6.95;3.15;;;7.50;83.60;;;;;;5074067;28;20380;-61
2021/01/03 11:42:39;;;;;;;7.20;3.85;;;7.50;84.10;;;;;;5078811;28;20093;-60
2021/01/03 11:45:09;;;;;;;8.20;4.40;;;7.50;83.90;;;;;;5075037;28;20040;-61
2021/01/03 11:47:35;;;;;;;9.55;4.75;;;7.40;83.80;;;;;;5072521;28;20119;-61
2021/01/03 11:50:02;;;;;;;8.23;4.60;;;7.50;83.80;;;;;;5076390;28;20108;-61
2021/01/03 11:52:30;;;;;;;6.40;3.13;;;7.50;83.80;;;;;;5082884;28;20482;-61
2021/01/03 11:54:56;;;;;;;7.80;3.17;;;7.40;83.80;;;;;;5079439;28;20032;-62
2021/01/03 11:57:23;;;;;;;6.75;3.58;;;7.50;83.90;;;;;;5083235;28;20142;-62
2021/01/03 11:59:48;;;;;;;8.43;3.72;;;7.40;83.90;;;;;;5090711;28;20067;-62
2021/01/03 12:02:14;;;;;;;7.65;2.88;;;7.40;84.00;;;;;;5081122;28;20075;-62
2021/01/03 12:04:40;;;;;;;6.78;3.60;;;7.40;84.10;;;;;;5086682;28;20153;-61
2021/01/03 12:07:10;;;;;;;5.55;2.88;;;7.50;84.20;;;;;;5092973;28;20428;-61
2021/01/03 12:09:36;;;;;;;5.32;3.38;;;7.40;84.20;;;;;;5091728;28;20051;-63
2021/01/03 12:12:08;;;;;;;8.00;4.22;;;7.40;84.40;;;;;;5084200;28;20031;-62
2021/01/03 12:14:35;;;;;;;6.45;3.45;;;7.50;84.20;;;;;;5090277;28;20438;-63
2021/01/03 12:17:06;;;;;;;3.67;2.10;;;7.50;84.10;;;;;;5082412;28;20502;-61
2021/01/03 12:19:32;;;;;;;5.40;2.85;;;7.50;84.30;;;;;;5089961;28;20474;-61
2021/01/03 12:22:02;;;;;;;6.72;4.38;;;7.50;84.10;;;;;;5092002;28;20123;-62
2021/01/03 12:24:29;;;;;;;6.75;3.75;;;7.40;83.70;;;;;;5092502;28;20383;-62
2021/01/03 12:26:55;;;;;;;6.53;3.88;;;7.50;83.90;;;;;;5092317;28;20093;-63
2021/01/03 12:29:22;;;;;;;7.13;4.03;;;7.50;84.20;;;;;;5092060;28;20027;-63
2021/01/03 12:31:54;;;;;;;9.15;4.57;;;7.50;84.20;;;;;;5084930;28;20032;-61
2021/01/03 12:34:23;;;;;;;9.65;5.38;;;7.50;84.00;;;;;;5086829;28;20427;-60
2021/01/03 12:36:49;;;;;;;7.53;3.90;;;7.50;84.10;;;;;;5075773;28;20439;-60
2021/01/03 12:39:19;;;;;;;6.70;3.95;;;7.50;84.20;;;;;;5079133;28;20028;-60
2021/01/03 12:41:46;;;;;;;9.75;4.68;;;7.40;83.70;;;;;;5084957;28;20082;-60
2021/01/03 12:44:12;;;;;;;6.03;3.42;;;7.40;83.60;;;;;;5077488;28;20028;-60
2021/01/03 12:46:42;;;;;;;8.82;3.75;;;7.40;83.80;;;;;;5072834;28;20112;-60
2021/01/03 12:49:08;;;;;;;9.90;5.07;;;7.40;84.10;;;;;;5072068;28;20542;-60
2021/01/03 12:51:34;;;;;;;10.88;5.88;;;7.40;84.30;;;;;;5072100;28;20028;-60
2021/01/03 12:54:00;;;;;;;10.80;5.55;;;7.40;84.00;;;;;;5072648;28;20027;-60
2021/01/03 12:56:26;;;;;;;11.23;5.90;;;7.40;84.00;;;;;;5072931;28;20442;-60
2021/01/03 12:58:59;;;;;;;9.95;4.65;;;7.40;83.90;;;;;;5071713;28;20488;-60
2021/01/03 13:01:31;;;;;;;13.68;5.35;;;7.40;83.80;;;;;;5073509;28;20040;-60